Sawyer County Airport
KHYR : now visible

Airfield :











YOU CAN JOIN US ON...

 
LOGIN :

Register | Disclaimer

   EN    FR    IT 

 









Legend :    VFR   Marginal VFR   IFR   Intensive IFR   Very Intensive IFR
Visi :
Ceiling :
>= 8 km
>= 3000ft
5 to 8 km
1000 to 3000 ft
1500m to 5 km
500 to 1000 ft
800 to 1500m
200 to 500 ft
< 800m
< 200 ft
Symbols :   Thunderstorms  Fog  Heavy snow  Heavy precipitations  Wind > 20 kt






- Airport Elevation : 1216 ft


KHYR - Sawyer County

CURRENT METAR :
  • 261453Z AUTO 03008KT 4SM -SN BKN016 BKN027 OVC035 M07/M11 A3028 RMK AO2 SLP275 P0000 60000 T10671106 50005

EXPIRED METARs :
  • 261446Z AUTO 03008KT 3SM -SN BKN017 BKN027 OVC035 M06/M10 A3028 RMK AO2 P0000 T10611100
  • 261424Z AUTO 03008KT 6SM -SN SCT015 OVC037 M07/M10 A3028 RMK AO2 P0000 T10671100
  • 261409Z AUTO 02008KT 3SM -SN BKN016 OVC039 M06/M09 A3028 RMK AO2 P0000 T10611094
  • 261353Z AUTO 35006KT 2 1/2SM -SN BKN018 BKN040 OVC050 M06/M09 A3028 RMK AO2 SLP275 P0000 T10611089
  • 261344Z AUTO 01005KT 2 1/2SM -SN BKN018 BKN042 OVC050 M06/M09 A3028 RMK AO2 P0000 T10611089
  • 261331Z AUTO 01006KT 6SM -SN FEW020 SCT025 OVC050 M06/M09 A3027 RMK AO2 P0000 T10611094
  • 261253Z AUTO 01008KT 4SM -SN FEW010 BKN016 OVC025 M06/M09 A3027 RMK AO2 SLP270 P0000 T10561089
  • 261240Z AUTO 01006KT 3SM -SN FEW012 BKN018 OVC031 M06/M08 A3027 RMK AO2 P0000 T10561083
  • 261232Z AUTO 36004KT 1 1/4SM -SN BKN015 BKN021 OVC031 M06/M08 A3027 RMK AO2 P0000 T10561083
  • 261224Z AUTO 02005KT 2SM -SN SCT015 BKN021 OVC031 M06/M08 A3026 RMK AO2 P0000 T10561083

TAF KHYR
Valid from the 26 at 14:00 until the 27 at 12:00 UTC


261350Z 2614/2712 02005KT 6SM -SHSN OVC020
TEMPO 2614/2615 2SM -SHSN OVC015
FM261500 01006KT P6SM VCSH OVC020
FM270200 00000KT P6SM VCSH BKN035
FM270900 00000KT P6SM SCT080



MET'MAP, your aeronautical weather chart ! - Copyright ORBIFLY December 2007 - Disclaimer

ORBIFLY MET'MAP TEAM :

Programming & Development : Alexandra Zaïnal
Concept & original design : Baudouin d'Aumeries
Assistance for programming : Marc-Olivier Méhu
Technical & hardware support : Manuel Goepfert

Contact : metmap@orbifly.com




SOURCES & CREDITS :

   NOAA       Earth
Advisory